Freeport, Minnesota
Current Conditions -  °F | °C
As of 9:12 AM on Friday 19 Dec 2014 (Local Time) from KD39 Reporting Station
Haze Haze  
Wind Chill: 13°   Ceiling: 300
Heat Index: 22°   Visibility: 0.75mi
Dew Point: 21°   Wind: 8mph
Humidity: 97%   Direction: 130°SE
Pressure: 30.16"   Gusts: NA
Location:  45.66°N, 94.69°W
Report Text: KD39 191512Z AUTO 13007KT 3/4SM BR OVC003 M05/M06 A3016 RMK AO2 T10551059
Loading
Personal Weather Stations






























Interactive Weather Map New forecast layout! Learn more

10-Day Weather Forecast

Advertisements
Track Severe Weather on mobile